Portada
METAR-TAF:

METAR-TAF

Aeroports :

Aktobe, Kazakhstan

latitud: 50-17N, longitud: 057-09E, altitud: 227 m

Observació

L'informe es va fer fa 29 minuts, a les 07:00 UTC
Vent 8 kt del Sud-Est
Temperatura -4°C
Humitat 74%
Pressió 1020 hPa
Visibilitat 10 km o més
sense núvols per sota de 1500 mi sense presència de cumulonimbus.

METAR: UATT 200700Z 14004MPS CAVOK M04/M08 Q1020 R13/0///60 NOSIG RMK QFE745/0994

Hora: 12:29 (07:29 UTC)

Pronòstic

L'informe es va fer fa 2 hores i 29 minuts, a les 05:00 UTC
Pronòstic vàlid del 20 a les 06 UTC al 21 a les 06 UTC
Vent 12 kt del Sud/Sud-Est
Visibilitat: 3100 m
Cel ennuvolat a una alçada de 1100 ft
boirina
Evolucionant progressivament
l' 20 a les 12 UTC al 20 a les 14 UTC
Vent 6 kt del Nord-Est
Núvols disperses a una alçada de 300 ft

TAF: UATT 200500Z 2006/2106 16006MPS 3100 BR BKN011 TXM02/2012Z TNM05/2103Z BECMG 2012/2014 05003MPS SCT003

Observacions i pronòstics meteorològics de més de 4000 aeroports (METAR i TAF).

Les estacions disponibles són els punts grocs i vermells al mapa.

Posi el ratolí al punt desitjat per veure el nom de l'estació.

Feu clic per veure les observacions i els pronòstics meteorològics.

Per canviar el mapa: feu clic els botons verds amb una creu de color negre per apropar; al botó verd amb un guió per allunyar la imatge; o en les fletxes verdes per a mapes adjacents.


METAR-TAF: